sensor_id;sensor_type;location;lat;lon;timestamp;pressure;altitude;pressure_sealevel;temperature;humidity
10510;BME280;5303;53.266;10.410;2023-11-22T00:00:58;102599.78;;;1.84;100.00
10510;BME280;5303;53.266;10.410;2023-11-22T00:03:23;102601.28;;;1.81;100.00
10510;BME280;5303;53.266;10.410;2023-11-22T00:05:49;102615.81;;;1.77;100.00
10510;BME280;5303;53.266;10.410;2023-11-22T00:08:15;102619.31;;;1.78;100.00
10510;BME280;5303;53.266;10.410;2023-11-22T00:10:40;102620.03;;;1.75;100.00
10510;BME280;5303;53.266;10.410;2023-11-22T00:13:05;102613.53;;;1.68;100.00
10510;BME280;5303;53.266;10.410;2023-11-22T00:15:31;102605.34;;;1.62;100.00
10510;BME280;5303;53.266;10.410;2023-11-22T00:17:56;102601.41;;;1.54;100.00
10510;BME280;5303;53.266;10.410;2023-11-22T00:20:23;102600.38;;;1.52;100.00
10510;BME280;5303;53.266;10.410;2023-11-22T00:22:48;102601.00;;;1.48;100.00
10510;BME280;5303;53.266;10.410;2023-11-22T00:25:14;102594.41;;;1.40;100.00
10510;BME280;5303;53.266;10.410;2023-11-22T00:27:39;102599.25;;;1.34;100.00
10510;BME280;5303;53.266;10.410;2023-11-22T00:30:05;102603.66;;;1.35;100.00
10510;BME280;5303;53.266;10.410;2023-11-22T00:32:30;102618.22;;;1.33;100.00
10510;BME280;5303;53.266;10.410;2023-11-22T00:34:56;102605.22;;;1.33;100.00
10510;BME280;5303;53.266;10.410;2023-11-22T00:37:21;102607.72;;;1.31;100.00
10510;BME280;5303;53.266;10.410;2023-11-22T00:39:47;102601.72;;;1.32;100.00
10510;BME280;5303;53.266;10.410;2023-11-22T00:42:12;102602.44;;;1.30;100.00
10510;BME280;5303;53.266;10.410;2023-11-22T00:44:38;102598.84;;;1.28;100.00
10510;BME280;5303;53.266;10.410;2023-11-22T00:47:04;102602.25;;;1.27;100.00
10510;BME280;5303;53.266;10.410;2023-11-22T00:49:30;102607.47;;;1.27;100.00
10510;BME280;5303;53.266;10.410;2023-11-22T00:51:55;102617.66;;;1.24;100.00
10510;BME280;5303;53.266;10.410;2023-11-22T00:54:20;102609.56;;;1.19;100.00
10510;BME280;5303;53.266;10.410;2023-11-22T00:56:46;102619.47;;;1.11;100.00
10510;BME280;5303;53.266;10.410;2023-11-22T00:59:12;102623.56;;;1.08;100.00
10510;BME280;5303;53.266;10.410;2023-11-22T01:01:37;102641.25;;;1.00;100.00
10510;BME280;5303;53.266;10.410;2023-11-22T01:04:02;102646.25;;;0.97;100.00
10510;BME280;5303;53.266;10.410;2023-11-22T01:06:28;102654.97;;;0.98;100.00
10510;BME280;5303;53.266;10.410;2023-11-22T01:08:54;102655.06;;;0.99;100.00
10510;BME280;5303;53.266;10.410;2023-11-22T01:11:19;102665.25;;;0.96;100.00
10510;BME280;5303;53.266;10.410;2023-11-22T01:13:45;102665.44;;;0.99;100.00
10510;BME280;5303;53.266;10.410;2023-11-22T01:16:12;102671.44;;;0.98;100.00
10510;BME280;5303;53.266;10.410;2023-11-22T01:18:38;102673.25;;;0.99;100.00
10510;BME280;5303;53.266;10.410;2023-11-22T01:21:04;102667.47;;;1.03;100.00
10510;BME280;5303;53.266;10.410;2023-11-22T01:23:30;102676.16;;;1.04;100.00
10510;BME280;5303;53.266;10.410;2023-11-22T01:25:57;102667.25;;;1.00;100.00
10510;BME280;5303;53.266;10.410;2023-11-22T01:28:23;102665.53;;;1.01;100.00
10510;BME280;5303;53.266;10.410;2023-11-22T01:30:48;102664.88;;;1.03;100.00
10510;BME280;5303;53.266;10.410;2023-11-22T01:33:14;102656.56;;;0.96;100.00
10510;BME280;5303;53.266;10.410;2023-11-22T01:35:39;102656.56;;;0.96;100.00
10510;BME280;5303;53.266;10.410;2023-11-22T01:38:05;102647.16;;;0.98;100.00
10510;BME280;5303;53.266;10.410;2023-11-22T01:40:31;102655.66;;;0.95;100.00
10510;BME280;5303;53.266;10.410;2023-11-22T01:42:57;102657.38;;;0.95;100.00
10510;BME280;5303;53.266;10.410;2023-11-22T01:45:22;102664.47;;;0.97;100.00
10510;BME280;5303;53.266;10.410;2023-11-22T01:47:48;102660.88;;;0.95;100.00
10510;BME280;5303;53.266;10.410;2023-11-22T01:50:13;102663.84;;;0.88;100.00
10510;BME280;5303;53.266;10.410;2023-11-22T01:52:40;102663.84;;;0.88;100.00
10510;BME280;5303;53.266;10.410;2023-11-22T01:55:06;102673.34;;;0.88;100.00
10510;BME280;5303;53.266;10.410;2023-11-22T01:57:34;102673.16;;;0.84;100.00
10510;BME280;5303;53.266;10.410;2023-11-22T02:00:03;102675.84;;;0.86;100.00
10510;BME280;5303;53.266;10.410;2023-11-22T02:02:35;102678.13;;;0.81;100.00
10510;BME280;5303;53.266;10.410;2023-11-22T02:05:01;102684.53;;;0.86;100.00
10510;BME280;5303;53.266;10.410;2023-11-22T02:07:27;102691.16;;;0.95;100.00
10510;BME280;5303;53.266;10.410;2023-11-22T02:09:53;102687.94;;;0.99;100.00
10510;BME280;5303;53.266;10.410;2023-11-22T02:12:19;102691.03;;;1.06;100.00
10510;BME280;5303;53.266;10.410;2023-11-22T02:14:45;102679.75;;;1.06;100.00
10510;BME280;5303;53.266;10.410;2023-11-22T02:17:10;102687.16;;;1.13;100.00
10510;BME280;5303;53.266;10.410;2023-11-22T02:19:36;102684.84;;;1.18;100.00
10510;BME280;5303;53.266;10.410;2023-11-22T02:22:02;102685.66;;;1.17;100.00
10510;BME280;5303;53.266;10.410;2023-11-22T02:24:27;102691.47;;;1.12;100.00
10510;BME280;5303;53.266;10.410;2023-11-22T02:26:53;102690.16;;;1.06;100.00
10510;BME280;5303;53.266;10.410;2023-11-22T02:29:19;102688.34;;;1.05;100.00
10510;BME280;5303;53.266;10.410;2023-11-22T02:31:45;102687.38;;;1.03;100.00
10510;BME280;5303;53.266;10.410;2023-11-22T02:34:10;102683.06;;;1.03;100.00
10510;BME280;5303;53.266;10.410;2023-11-22T02:36:35;102695.94;;;1.02;100.00
10510;BME280;5303;53.266;10.410;2023-11-22T02:39:01;102699.22;;;0.99;100.00
10510;BME280;5303;53.266;10.410;2023-11-22T02:41:27;102711.03;;;0.94;100.00
10510;BME280;5303;53.266;10.410;2023-11-22T02:43:55;102709.25;;;0.93;100.00
10510;BME280;5303;53.266;10.410;2023-11-22T02:46:20;102708.22;;;0.91;100.00
10510;BME280;5303;53.266;10.410;2023-11-22T02:48:45;102700.03;;;0.85;100.00
10510;BME280;5303;53.266;10.410;2023-11-22T02:51:11;102703.19;;;0.81;100.00
10510;BME280;5303;53.266;10.410;2023-11-22T02:53:37;102720.19;;;0.76;100.00
10510;BME280;5303;53.266;10.410;2023-11-22T02:56:02;102731.97;;;0.71;100.00
10510;BME280;5303;53.266;10.410;2023-11-22T02:58:30;102720.47;;;0.67;100.00
10510;BME280;5303;53.266;10.410;2023-11-22T03:00:56;102728.63;;;0.60;100.00
10510;BME280;5303;53.266;10.410;2023-11-22T03:03:22;102718.75;;;0.54;100.00
10510;BME280;5303;53.266;10.410;2023-11-22T03:05:49;102731.84;;;0.56;100.00
10510;BME280;5303;53.266;10.410;2023-11-22T03:08:15;102731.63;;;0.53;100.00
10510;BME280;5303;53.266;10.410;2023-11-22T03:10:41;102732.28;;;0.50;100.00
10510;BME280;5303;53.266;10.410;2023-11-22T03:13:07;102735.94;;;0.52;100.00
10510;BME280;5303;53.266;10.410;2023-11-22T03:15:34;102739.44;;;0.53;100.00
10510;BME280;5303;53.266;10.410;2023-11-22T03:17:59;102740.88;;;0.49;100.00
10510;BME280;5303;53.266;10.410;2023-11-22T03:20:25;102748.28;;;0.43;100.00
10510;BME280;5303;53.266;10.410;2023-11-22T03:22:50;102751.53;;;0.41;100.00
10510;BME280;5303;53.266;10.410;2023-11-22T03:25:16;102757.53;;;0.40;100.00
10510;BME280;5303;53.266;10.410;2023-11-22T03:27:41;102749.06;;;0.42;100.00
10510;BME280;5303;53.266;10.410;2023-11-22T03:30:07;102747.28;;;0.41;100.00
10510;BME280;5303;53.266;10.410;2023-11-22T03:32:39;102741.38;;;0.44;100.00
10510;BME280;5303;53.266;10.410;2023-11-22T03:35:06;102751.06;;;0.46;100.00
10510;BME280;5303;53.266;10.410;2023-11-22T03:37:31;102745.44;;;0.40;100.00
10510;BME280;5303;53.266;10.410;2023-11-22T03:39:57;102746.16;;;0.38;100.00
10510;BME280;5303;53.266;10.410;2023-11-22T03:42:22;102741.94;;;0.40;100.00
10510;BME280;5303;53.266;10.410;2023-11-22T03:44:48;102751.78;;;0.44;100.00
10510;BME280;5303;53.266;10.410;2023-11-22T03:47:16;102749.47;;;0.48;100.00
10510;BME280;5303;53.266;10.410;2023-11-22T03:49:41;102753.97;;;0.51;100.00
10510;BME280;5303;53.266;10.410;2023-11-22T03:52:08;102761.00;;;0.52;100.00
10510;BME280;5303;53.266;10.410;2023-11-22T03:54:33;102765.06;;;0.48;100.00
10510;BME280;5303;53.266;10.410;2023-11-22T03:56:58;102765.16;;;0.50;100.00
10510;BME280;5303;53.266;10.410;2023-11-22T03:59:24;102771.84;;;0.46;100.00
10510;BME280;5303;53.266;10.410;2023-11-22T04:01:49;102778.44;;;0.41;100.00
10510;BME280;5303;53.266;10.410;2023-11-22T04:04:16;102782.81;;;0.42;100.00
10510;BME280;5303;53.266;10.410;2023-11-22T04:06:41;102781.34;;;0.46;100.00
10510;BME280;5303;53.266;10.410;2023-11-22T04:09:06;102774.44;;;0.46;100.00
10510;BME280;5303;53.266;10.410;2023-11-22T04:11:33;102776.13;;;0.46;100.00
10510;BME280;5303;53.266;10.410;2023-11-22T04:14:00;102783.81;;;0.44;100.00
10510;BME280;5303;53.266;10.410;2023-11-22T04:16:25;102781.94;;;0.42;100.00
10510;BME280;5303;53.266;10.410;2023-11-22T04:18:50;102791.28;;;0.40;100.00
10510;BME280;5303;53.266;10.410;2023-11-22T04:21:15;102798.97;;;0.38;100.00
10510;BME280;5303;53.266;10.410;2023-11-22T04:23:41;102796.25;;;0.37;100.00
10510;BME280;5303;53.266;10.410;2023-11-22T04:26:06;102790.88;;;0.34;100.00
10510;BME280;5303;53.266;10.410;2023-11-22T04:28:33;102804.75;;;0.34;100.00
10510;BME280;5303;53.266;10.410;2023-11-22T04:30:58;102806.69;;;0.25;100.00
10510;BME280;5303;53.266;10.410;2023-11-22T04:33:24;102805.44;;;0.20;100.00
10510;BME280;5303;53.266;10.410;2023-11-22T04:35:50;102796.56;;;0.16;100.00
10510;BME280;5303;53.266;10.410;2023-11-22T04:38:16;102802.44;;;0.14;100.00
10510;BME280;5303;53.266;10.410;2023-11-22T04:40:41;102794.56;;;0.12;100.00
10510;BME280;5303;53.266;10.410;2023-11-22T04:43:09;102786.88;;;0.14;100.00
10510;BME280;5303;53.266;10.410;2023-11-22T04:45:35;102780.09;;;0.16;100.00
10510;BME280;5303;53.266;10.410;2023-11-22T04:48:00;102785.88;;;0.12;100.00
10510;BME280;5303;53.266;10.410;2023-11-22T04:50:25;102786.66;;;0.11;100.00
10510;BME280;5303;53.266;10.410;2023-11-22T04:52:51;102784.63;;;0.07;100.00
10510;BME280;5303;53.266;10.410;2023-11-22T04:55:16;102782.63;;;0.03;100.00
10510;BME280;5303;53.266;10.410;2023-11-22T04:57:41;102795.50;;;0.01;100.00
10510;BME280;5303;53.266;10.410;2023-11-22T05:00:07;102794.59;;;0.01;100.00
10510;BME280;5303;53.266;10.410;2023-11-22T05:02:33;102796.28;;;0.00;100.00
10510;BME280;5303;53.266;10.410;2023-11-22T05:04:58;102788.59;;;0.02;100.00
10510;BME280;5303;53.266;10.410;2023-11-22T05:07:23;102779.78;;;-0.01;100.00
10510;BME280;5303;53.266;10.410;2023-11-22T05:09:49;102795.13;;;-0.04;100.00
10510;BME280;5303;53.266;10.410;2023-11-22T05:12:14;102789.63;;;-0.08;100.00
10510;BME280;5303;53.266;10.410;2023-11-22T05:14:39;102778.13;;;-0.12;100.00
10510;BME280;5303;53.266;10.410;2023-11-22T05:17:05;102788.28;;;-0.15;100.00
10510;BME280;5303;53.266;10.410;2023-11-22T05:19:30;102795.97;;;-0.16;100.00
10510;BME280;5303;53.266;10.410;2023-11-22T05:21:56;102797.66;;;-0.17;100.00
10510;BME280;5303;53.266;10.410;2023-11-22T05:24:22;102801.72;;;-0.20;100.00
10510;BME280;5303;53.266;10.410;2023-11-22T05:26:47;102810.41;;;-0.20;100.00
10510;BME280;5303;53.266;10.410;2023-11-22T05:29:12;102805.34;;;-0.18;100.00
10510;BME280;5303;53.266;10.410;2023-11-22T05:31:38;102809.63;;;-0.19;100.00
10510;BME280;5303;53.266;10.410;2023-11-22T05:34:03;102807.81;;;-0.20;100.00
10510;BME280;5303;53.266;10.410;2023-11-22T05:36:29;102810.16;;;-0.23;100.00
10510;BME280;5303;53.266;10.410;2023-11-22T05:38:55;102817.63;;;-0.27;100.00
10510;BME280;5303;53.266;10.410;2023-11-22T05:41:20;102818.41;;;-0.28;100.00
10510;BME280;5303;53.266;10.410;2023-11-22T05:43:46;102826.41;;;-0.25;100.00
10510;BME280;5303;53.266;10.410;2023-11-22T05:46:11;102840.06;;;-0.28;100.00
10510;BME280;5303;53.266;10.410;2023-11-22T05:48:37;102846.84;;;-0.30;100.00
10510;BME280;5303;53.266;10.410;2023-11-22T05:51:03;102839.28;;;-0.27;100.00
10510;BME280;5303;53.266;10.410;2023-11-22T05:53:28;102840.06;;;-0.28;100.00
10510;BME280;5303;53.266;10.410;2023-11-22T05:55:53;102849.28;;;-0.32;100.00
10510;BME280;5303;53.266;10.410;2023-11-22T05:58:19;102850.97;;;-0.32;100.00
10510;BME280;5303;53.266;10.410;2023-11-22T06:00:47;102849.06;;;-0.35;100.00
10510;BME280;5303;53.266;10.410;2023-11-22T06:03:14;102862.72;;;-0.37;100.00
10510;BME280;5303;53.266;10.410;2023-11-22T06:05:39;102862.50;;;-0.40;100.00
10510;BME280;5303;53.266;10.410;2023-11-22T06:08:05;102866.78;;;-0.41;100.00
10510;BME280;5303;53.266;10.410;2023-11-22T06:10:30;102860.81;;;-0.40;100.00
10510;BME280;5303;53.266;10.410;2023-11-22T06:12:56;102866.09;;;-0.38;100.00
10510;BME280;5303;53.266;10.410;2023-11-22T06:15:21;102866.09;;;-0.38;100.00
10510;BME280;5303;53.266;10.410;2023-11-22T06:17:47;102864.31;;;-0.39;100.00
10510;BME280;5303;53.266;10.410;2023-11-22T06:20:13;102862.72;;;-0.37;100.00
10510;BME280;5303;53.266;10.410;2023-11-22T06:22:39;102857.31;;;-0.40;100.00
10510;BME280;5303;53.266;10.410;2023-11-22T06:25:08;102850.31;;;-0.41;100.00
10510;BME280;5303;53.266;10.410;2023-11-22T06:27:33;102847.84;;;-0.40;100.00
10510;BME280;5303;53.266;10.410;2023-11-22T06:29:58;102849.41;;;-0.42;100.00
10510;BME280;5303;53.266;10.410;2023-11-22T06:32:24;102845.91;;;-0.42;100.00
10510;BME280;5303;53.266;10.410;2023-11-22T06:34:49;102839.72;;;-0.44;100.00
10510;BME280;5303;53.266;10.410;2023-11-22T06:37:14;102837.22;;;-0.43;100.00
10510;BME280;5303;53.266;10.410;2023-11-22T06:39:40;102846.81;;;-0.42;100.00
10510;BME280;5303;53.266;10.410;2023-11-22T06:42:05;102845.91;;;-0.42;100.00
10510;BME280;5303;53.266;10.410;2023-11-22T06:44:31;102831.41;;;-0.40;100.00
10510;BME280;5303;53.266;10.410;2023-11-22T06:46:57;102826.22;;;-0.40;100.00
10510;BME280;5303;53.266;10.410;2023-11-22T06:49:22;102821.03;;;-0.40;100.00
10510;BME280;5303;53.266;10.410;2023-11-22T06:51:48;102803.88;;;-0.38;100.00
10510;BME280;5303;53.266;10.410;2023-11-22T06:54:13;102791.47;;;-0.42;100.00
10510;BME280;5303;53.266;10.410;2023-11-22T06:56:38;102798.69;;;-0.38;100.00
10510;BME280;5303;53.266;10.410;2023-11-22T06:59:04;102816.25;;;-0.34;100.00
10510;BME280;5303;53.266;10.410;2023-11-22T07:01:29;102818.06;;;-0.33;100.00
10510;BME280;5303;53.266;10.410;2023-11-22T07:03:55;102817.53;;;-0.29;100.00
10510;BME280;5303;53.266;10.410;2023-11-22T07:06:20;102816.16;;;-0.24;100.00
10510;BME280;5303;53.266;10.410;2023-11-22T07:08:47;102828.56;;;-0.20;100.00
10510;BME280;5303;53.266;10.410;2023-11-22T07:11:13;102827.97;;;-0.16;100.00
10510;BME280;5303;53.266;10.410;2023-11-22T07:13:39;102823.00;;;-0.13;100.00
10510;BME280;5303;53.266;10.410;2023-11-22T07:16:05;102824.81;;;-0.12;100.00
10510;BME280;5303;53.266;10.410;2023-11-22T07:18:32;102814.69;;;-0.09;100.00
10510;BME280;5303;53.266;10.410;2023-11-22T07:20:58;102832.25;;;-0.05;100.00
10510;BME280;5303;53.266;10.410;2023-11-22T07:23:24;102835.66;;;-0.06;100.00
10510;BME280;5303;53.266;10.410;2023-11-22T07:25:54;102825.38;;;-0.04;100.00
10510;BME280;5303;53.266;10.410;2023-11-22T07:28:19;102834.94;;;-0.03;100.00
10510;BME280;5303;53.266;10.410;2023-11-22T07:30:44;102826.47;;;-0.01;100.00
10510;BME280;5303;53.266;10.410;2023-11-22T07:33:10;102828.19;;;-0.01;100.00
10510;BME280;5303;53.266;10.410;2023-11-22T07:35:36;102831.81;;;0.01;100.00
10510;BME280;5303;53.266;10.410;2023-11-22T07:38:01;102824.13;;;0.03;100.00
10510;BME280;5303;53.266;10.410;2023-11-22T07:40:28;102827.53;;;0.02;100.00
10510;BME280;5303;53.266;10.410;2023-11-22T07:42:54;102828.94;;;0.10;100.00
10510;BME280;5303;53.266;10.410;2023-11-22T07:45:19;102823.19;;;0.14;100.00
10510;BME280;5303;53.266;10.410;2023-11-22T07:47:44;102828.03;;;0.21;100.00
10510;BME280;5303;53.266;10.410;2023-11-22T07:50:12;102832.97;;;0.29;100.00
10510;BME280;5303;53.266;10.410;2023-11-22T07:52:37;102834.31;;;0.36;100.00
10510;BME280;5303;53.266;10.410;2023-11-22T07:55:05;102844.09;;;0.40;100.00
10510;BME280;5303;53.266;10.410;2023-11-22T07:57:36;102851.44;;;0.46;100.00
10510;BME280;5303;53.266;10.410;2023-11-22T08:00:02;102863.72;;;0.48;100.00
10510;BME280;5303;53.266;10.410;2023-11-22T08:02:32;102875.75;;;0.60;100.00
10510;BME280;5303;53.266;10.410;2023-11-22T08:04:57;102888.09;;;0.62;100.00
10510;BME280;5303;53.266;10.410;2023-11-22T08:07:22;102884.78;;;0.65;100.00
10510;BME280;5303;53.266;10.410;2023-11-22T08:09:48;102895.38;;;0.68;100.00
10510;BME280;5303;53.266;10.410;2023-11-22T08:12:13;102892.59;;;0.65;100.00
10510;BME280;5303;53.266;10.410;2023-11-22T08:14:38;102892.69;;;0.66;100.00
10510;BME280;5303;53.266;10.410;2023-11-22T08:17:05;102897.19;;;0.69;100.00
10510;BME280;5303;53.266;10.410;2023-11-22T08:19:31;102887.59;;;0.68;100.00
10510;BME280;5303;53.266;10.410;2023-11-22T08:21:56;102895.03;;;0.75;100.00
10510;BME280;5303;53.266;10.410;2023-11-22T08:24:22;102885.84;;;0.80;100.00
10510;BME280;5303;53.266;10.410;2023-11-22T08:26:47;102883.50;;;0.83;100.00
10510;BME280;5303;53.266;10.410;2023-11-22T08:29:12;102877.78;;;0.89;100.00
10510;BME280;5303;53.266;10.410;2023-11-22T08:31:39;102869.75;;;0.97;100.00
10510;BME280;5303;53.266;10.410;2023-11-22T08:34:04;102860.56;;;1.02;100.00
10510;BME280;5303;53.266;10.410;2023-11-22T08:36:35;102850.19;;;1.02;100.00
10510;BME280;5303;53.266;10.410;2023-11-22T08:39:01;102846.34;;;0.97;100.00
10510;BME280;5303;53.266;10.410;2023-11-22T08:41:30;102848.47;;;1.03;100.00
10510;BME280;5303;53.266;10.410;2023-11-22T08:43:56;102848.78;;;1.07;100.00
10510;BME280;5303;53.266;10.410;2023-11-22T08:46:22;102849.31;;;1.15;100.00
10510;BME280;5303;53.266;10.410;2023-11-22T08:48:48;102864.31;;;1.19;100.00
10510;BME280;5303;53.266;10.410;2023-11-22T08:51:14;102869.03;;;1.25;100.00
10510;BME280;5303;53.266;10.410;2023-11-22T08:53:40;102863.31;;;1.30;100.00
10510;BME280;5303;53.266;10.410;2023-11-22T08:56:05;102865.38;;;1.48;100.00
10510;BME280;5303;53.266;10.410;2023-11-22T08:58:31;102856.47;;;1.44;100.00
10510;BME280;5303;53.266;10.410;2023-11-22T09:00:56;102851.03;;;1.41;100.00
10510;BME280;5303;53.266;10.410;2023-11-22T09:03:23;102860.06;;;1.46;100.00
10510;BME280;5303;53.266;10.410;2023-11-22T09:05:48;102867.25;;;1.50;100.00
10510;BME280;5303;53.266;10.410;2023-11-22T09:08:14;102876.28;;;1.55;100.00
10510;BME280;5303;53.266;10.410;2023-11-22T09:10:40;102875.47;;;1.56;100.00
10510;BME280;5303;53.266;10.410;2023-11-22T09:13:06;102880.28;;;1.63;100.00
10510;BME280;5303;53.266;10.410;2023-11-22T09:15:31;102891.09;;;1.69;100.00
10510;BME280;5303;53.266;10.410;2023-11-22T09:17:59;102887.88;;;1.73;100.00
10510;BME280;5303;53.266;10.410;2023-11-22T09:20:25;102875.19;;;1.78;100.00
10510;BME280;5303;53.266;10.410;2023-11-22T09:22:51;102878.69;;;1.79;100.00
10510;BME280;5303;53.266;10.410;2023-11-22T09:25:20;102879.69;;;1.81;100.00
10510;BME280;5303;53.266;10.410;2023-11-22T09:27:47;102859.19;;;1.85;100.00
10510;BME280;5303;53.266;10.410;2023-11-22T09:30:15;102859.28;;;1.87;100.00
10510;BME280;5303;53.266;10.410;2023-11-22T09:32:57;102865.47;;;2.02;100.00
10510;BME280;5303;53.266;10.410;2023-11-22T09:35:22;102868.28;;;2.05;100.00
10510;BME280;5303;53.266;10.410;2023-11-22T09:37:48;102867.47;;;2.06;100.00
10510;BME280;5303;53.266;10.410;2023-11-22T09:40:13;102859.25;;;2.13;100.00
10510;BME280;5303;53.266;10.410;2023-11-22T09:42:43;102861.63;;;2.23;100.00
10510;BME280;5303;53.266;10.410;2023-11-22T09:45:08;102864.81;;;2.33;100.00
10510;BME280;5303;53.266;10.410;2023-11-22T09:47:34;102877.53;;;2.41;100.00
10510;BME280;5303;53.266;10.410;2023-11-22T09:50:01;102878.50;;;2.43;100.00
10510;BME280;5303;53.266;10.410;2023-11-22T09:52:33;102877.59;;;2.56;100.00
10510;BME280;5303;53.266;10.410;2023-11-22T09:55:00;102887.41;;;2.60;100.00
10510;BME280;5303;53.266;10.410;2023-11-22T09:57:26;102892.19;;;2.67;100.00
10510;BME280;5303;53.266;10.410;2023-11-22T09:59:55;102897.88;;;2.75;100.00
10510;BME280;5303;53.266;10.410;2023-11-22T10:02:22;102888.09;;;2.85;100.00
10510;BME280;5303;53.266;10.410;2023-11-22T10:04:52;102898.53;;;2.85;100.00
10510;BME280;5303;53.266;10.410;2023-11-22T10:07:18;102907.72;;;2.94;100.00
10510;BME280;5303;53.266;10.410;2023-11-22T10:09:43;102898.44;;;2.84;100.00
10510;BME280;5303;53.266;10.410;2023-11-22T10:12:12;102888.09;;;2.85;100.00
10510;BME280;5303;53.266;10.410;2023-11-22T10:14:37;102881.72;;;2.80;100.00
10510;BME280;5303;53.266;10.410;2023-11-22T10:17:03;102888.72;;;2.81;100.00
10510;BME280;5303;53.266;10.410;2023-11-22T10:19:30;102879.50;;;2.86;100.00
10510;BME280;5303;53.266;10.410;2023-11-22T10:22:06;102877.78;;;2.87;100.00
10510;BME280;5303;53.266;10.410;2023-11-22T10:24:33;102869.44;;;2.93;100.00
10510;BME280;5303;53.266;10.410;2023-11-22T10:26:59;102861.78;;;2.96;100.00
10510;BME280;5303;53.266;10.410;2023-11-22T10:29:28;102865.50;;;2.99;100.00
10510;BME280;5303;53.266;10.410;2023-11-22T10:31:53;102854.16;;;2.99;100.00
10510;BME280;5303;53.266;10.410;2023-11-22T10:34:21;102851.81;;;2.88;100.00
10510;BME280;5303;53.266;10.410;2023-11-22T10:36:47;102834.16;;;2.84;100.00
10510;BME280;5303;53.266;10.410;2023-11-22T10:39:12;102837.16;;;2.91;100.00
10510;BME280;5303;53.266;10.410;2023-11-22T10:41:41;102840.56;;;2.89;100.00
10510;BME280;5303;53.266;10.410;2023-11-22T10:44:08;102853.97;;;2.96;100.00
10510;BME280;5303;53.266;10.410;2023-11-22T10:46:33;102834.22;;;2.99;100.00
10510;BME280;5303;53.266;10.410;2023-11-22T10:48:58;102826.22;;;3.11;100.00
10510;BME280;5303;53.266;10.410;2023-11-22T10:51:27;102822.00;;;3.13;100.00
10510;BME280;5303;53.266;10.410;2023-11-22T10:53:55;102812.75;;;3.18;100.00
10510;BME280;5303;53.266;10.410;2023-11-22T10:56:22;102801.59;;;3.21;100.00
10510;BME280;5303;53.266;10.410;2023-11-22T10:58:55;102787.09;;;3.26;100.00
10510;BME280;5303;53.266;10.410;2023-11-22T11:01:23;102775.75;;;3.25;100.00
10510;BME280;5303;53.266;10.410;2023-11-22T11:06:34;102782.50;;;3.36;100.00
10510;BME280;5303;53.266;10.410;2023-11-22T11:09:01;102764.44;;;3.39;100.00
10510;BME280;5303;53.266;10.410;2023-11-22T11:11:31;102767.84;;;3.38;100.00
10510;BME280;5303;53.266;10.410;2023-11-22T11:13:57;102758.31;;;3.39;100.00
10510;BME280;5303;53.266;10.410;2023-11-22T11:16:23;102752.72;;;3.47;100.00
10510;BME280;5303;53.266;10.410;2023-11-22T11:18:49;102746.13;;;3.54;100.00
10510;BME280;5303;53.266;10.410;2023-11-22T11:21:15;102737.56;;;3.57;100.00
10510;BME280;5303;53.266;10.410;2023-11-22T11:23:41;102723.91;;;3.61;100.00
10510;BME280;5303;53.266;10.410;2023-11-22T11:28:45;102718.84;;;3.64;100.00
10510;BME280;5303;53.266;10.410;2023-11-22T11:31:12;102716.31;;;3.65;100.00
10510;BME280;5303;53.266;10.410;2023-11-22T11:36:24;102690.22;;;3.65;100.00
10510;BME280;5303;53.266;10.410;2023-11-22T11:38:52;102676.25;;;3.65;100.00
10510;BME280;5303;53.266;10.410;2023-11-22T11:41:17;102677.66;;;3.58;100.00
10510;BME280;5303;53.266;10.410;2023-11-22T11:43:47;102662.09;;;3.76;100.00
10510;BME280;5303;53.266;10.410;2023-11-22T11:46:14;102653.44;;;3.77;100.00
10510;BME280;5303;53.266;10.410;2023-11-22T11:48:50;102632.41;;;3.74;100.00
10510;BME280;5303;53.266;10.410;2023-11-22T11:51:17;102633.88;;;3.69;100.00
10510;BME280;5303;53.266;10.410;2023-11-22T11:53:44;102636.97;;;3.62;100.00
10510;BME280;5303;53.266;10.410;2023-11-22T11:56:09;102632.56;;;3.61;100.00
10510;BME280;5303;53.266;10.410;2023-11-22T11:58:35;102626.19;;;3.56;100.00
10510;BME280;5303;53.266;10.410;2023-11-22T12:01:00;102633.69;;;3.66;100.00
10510;BME280;5303;53.266;10.410;2023-11-22T12:03:25;102626.44;;;3.60;100.00
10510;BME280;5303;53.266;10.410;2023-11-22T12:05:51;102620.66;;;3.66;100.00
10510;BME280;5303;53.266;10.410;2023-11-22T12:08:16;102615.19;;;3.61;100.00
10510;BME280;5303;53.266;10.410;2023-11-22T12:10:44;102595.56;;;3.68;100.00
10510;BME280;5303;53.266;10.410;2023-11-22T12:13:13;102588.69;;;3.70;100.00
10510;BME280;5303;53.266;10.410;2023-11-22T12:15:38;102593.91;;;3.70;100.00
10510;BME280;5303;53.266;10.410;2023-11-22T12:18:05;102599.22;;;3.71;100.00
10510;BME280;5303;53.266;10.410;2023-11-22T12:20:30;102618.38;;;3.72;100.00
10510;BME280;5303;53.266;10.410;2023-11-22T12:23:00;102638.50;;;3.74;100.00
10510;BME280;5303;53.266;10.410;2023-11-22T12:25:29;102657.69;;;3.75;100.00
10510;BME280;5303;53.266;10.410;2023-11-22T12:27:55;102660.47;;;3.78;100.00
10510;BME280;5303;53.266;10.410;2023-11-22T12:30:34;102632.56;;;3.77;100.00
10510;BME280;5303;53.266;10.410;2023-11-22T12:33:06;102619.44;;;3.75;100.00
10510;BME280;5303;53.266;10.410;2023-11-22T12:35:35;102622.31;;;3.80;100.00
10510;BME280;5303;53.266;10.410;2023-11-22T12:38:05;102616.00;;;3.76;100.00
10510;BME280;5303;53.266;10.410;2023-11-22T12:40:34;102604.66;;;3.76;100.00
10510;BME280;5303;53.266;10.410;2023-11-22T12:43:00;102606.31;;;3.74;100.00
10510;BME280;5303;53.266;10.410;2023-11-22T12:45:27;102601.16;;;3.75;100.00
10510;BME280;5303;53.266;10.410;2023-11-22T12:47:56;102595.53;;;3.84;100.00
10510;BME280;5303;53.266;10.410;2023-11-22T12:52:59;102583.63;;;3.73;100.00